createdAt,value
2018-06-03T00:01:14.072Z,17.50
2018-06-03T00:03:47.192Z,17.40
2018-06-03T00:06:19.761Z,17.50
2018-06-03T00:08:55.583Z,17.40
2018-06-03T00:11:27.999Z,17.40
2018-06-03T00:14:01.086Z,17.40
2018-06-03T00:16:34.257Z,17.40
2018-06-03T00:19:06.681Z,17.40
2018-06-03T00:21:42.296Z,17.40
2018-06-03T00:24:14.690Z,17.40
2018-06-03T00:26:47.228Z,17.50
2018-06-03T00:31:58.982Z,17.50
2018-06-03T00:34:31.343Z,17.50
2018-06-03T00:37:07.901Z,17.50
2018-06-03T00:39:40.528Z,17.50
2018-06-03T00:42:13.216Z,17.40
2018-06-03T00:44:46.688Z,17.40
2018-06-03T00:47:19.163Z,17.40
2018-06-03T00:49:52.407Z,17.50
2018-06-03T00:52:25.682Z,17.50
2018-06-03T00:54:58.326Z,17.40
2018-06-03T00:57:30.778Z,17.40
2018-06-03T01:00:04.487Z,17.40
2018-06-03T01:02:37.609Z,17.40
2018-06-03T01:05:10.144Z,17.40
2018-06-03T01:07:42.531Z,17.40
2018-06-03T01:10:15.658Z,17.40
2018-06-03T01:12:49.137Z,17.30
2018-06-03T01:15:21.777Z,17.30
2018-06-03T01:17:54.346Z,17.30
2018-06-03T01:20:27.733Z,17.20
2018-06-03T01:23:00.117Z,17.20
2018-06-03T01:25:36.061Z,17.20
2018-06-03T01:28:13.426Z,17.20
2018-06-03T01:30:45.915Z,17.20
2018-06-03T01:33:18.518Z,17.10
2018-06-03T01:35:51.212Z,17.20
2018-06-03T01:38:24.573Z,17.20
2018-06-03T01:40:57.016Z,17.10
2018-06-03T01:43:29.438Z,17.10
2018-06-03T01:46:01.851Z,17.10
2018-06-03T01:48:35.016Z,17.10
2018-06-03T01:51:11.993Z,17.20
2018-06-03T01:53:44.541Z,17.20
2018-06-03T01:56:21.298Z,17.30
2018-06-03T01:58:53.872Z,17.20
2018-06-03T02:01:26.297Z,17.30
2018-06-03T02:03:58.757Z,17.30
2018-06-03T02:06:31.203Z,17.30
2018-06-03T02:09:07.413Z,17.30
2018-06-03T02:11:39.778Z,17.30
2018-06-03T02:14:12.475Z,17.30
2018-06-03T02:16:45.561Z,17.30
2018-06-03T02:19:18.807Z,17.30
2018-06-03T02:21:51.197Z,17.20
2018-06-03T02:24:23.588Z,17.20
2018-06-03T02:26:56.806Z,17.20
2018-06-03T02:29:33.291Z,17.10
2018-06-03T02:32:05.589Z,17.10
2018-06-03T02:34:37.967Z,17.10
2018-06-03T02:37:13.787Z,17.10
2018-06-03T02:39:46.234Z,17.10
2018-06-03T02:42:18.904Z,17.10
2018-06-03T02:44:55.136Z,17.10
2018-06-03T02:47:29.062Z,17.20
2018-06-03T02:50:01.739Z,17.20
2018-06-03T02:52:34.851Z,17.20
2018-06-03T02:55:07.218Z,17.20
2018-06-03T02:57:39.687Z,17.20
2018-06-03T03:00:12.657Z,17.20
2018-06-03T03:02:45.161Z,17.20
2018-06-03T03:05:17.638Z,17.20
2018-06-03T03:07:50.172Z,17.20
2018-06-03T03:10:26.517Z,17.20
2018-06-03T03:12:58.922Z,17.20
2018-06-03T03:15:31.367Z,17.20
2018-06-03T03:18:03.848Z,17.20
2018-06-03T03:20:37.045Z,17.20
2018-06-03T03:23:10.227Z,17.20
2018-06-03T03:25:43.410Z,17.20
2018-06-03T03:28:16.552Z,17.10
2018-06-03T03:30:49.076Z,17.10
2018-06-03T03:33:21.508Z,17.10
2018-06-03T03:35:54.678Z,17.10
2018-06-03T03:38:27.892Z,17.10
2018-06-03T03:41:00.530Z,17.00
2018-06-03T03:43:32.953Z,17.00
2018-06-03T03:46:06.156Z,16.90
2018-06-03T03:48:39.239Z,16.90
2018-06-03T03:51:11.790Z,16.90
2018-06-03T03:53:45.041Z,16.90
2018-06-03T03:56:17.750Z,16.90
2018-06-03T03:58:50.190Z,17.00
2018-06-03T04:01:23.353Z,17.00
2018-06-03T04:03:55.859Z,16.90
2018-06-03T04:06:28.346Z,17.10
2018-06-03T04:09:00.834Z,17.10
2018-06-03T04:11:33.280Z,17.20
2018-06-03T04:14:06.008Z,17.30
2018-06-03T04:16:39.273Z,17.40
2018-06-03T04:19:11.670Z,17.40
2018-06-03T04:22:15.646Z,17.40
2018-06-03T04:24:49.514Z,17.50
2018-06-03T04:27:23.683Z,17.50
2018-06-03T04:29:57.623Z,17.50
2018-06-03T04:32:31.903Z,17.60
2018-06-03T04:35:05.843Z,17.60
2018-06-03T04:37:40.172Z,17.60
2018-06-03T04:40:14.265Z,17.60
2018-06-03T04:42:48.282Z,17.60
2018-06-03T04:47:56.017Z,17.70
2018-06-03T04:50:30.107Z,17.60
2018-06-03T04:53:04.091Z,17.60
2018-06-03T04:55:37.931Z,17.70
2018-06-03T04:58:11.858Z,17.70
2018-06-03T05:00:45.943Z,17.70
2018-06-03T05:03:20.108Z,17.70
2018-06-03T05:05:54.051Z,17.70
2018-06-03T05:08:27.924Z,17.80
2018-06-03T05:11:02.063Z,17.80
2018-06-03T05:13:39.172Z,17.80
2018-06-03T05:16:13.352Z,17.80
2018-06-03T05:18:47.542Z,17.80
2018-06-03T05:21:21.737Z,17.80
2018-06-03T05:23:59.681Z,17.80
2018-06-03T05:26:33.773Z,17.80
2018-06-03T05:29:07.749Z,17.80
2018-06-03T05:31:41.962Z,17.80
2018-06-03T05:34:15.978Z,17.80
2018-06-03T05:36:49.779Z,17.90
2018-06-03T05:39:27.682Z,17.90
2018-06-03T05:42:01.780Z,17.90
2018-06-03T05:44:35.673Z,18.00
2018-06-03T05:47:09.480Z,18.00
2018-06-03T05:49:43.619Z,18.00
2018-06-03T05:52:17.471Z,18.00
2018-06-03T05:54:51.411Z,18.00
2018-06-03T05:57:25.467Z,18.00
2018-06-03T05:59:59.322Z,18.10
2018-06-03T06:02:33.358Z,18.00
2018-06-03T06:05:07.453Z,18.00
2018-06-03T06:07:42.242Z,18.10
2018-06-03T06:10:16.418Z,18.10
2018-06-03T06:12:50.232Z,18.10
2018-06-03T06:15:28.288Z,18.20
2018-06-03T06:18:02.259Z,18.20
2018-06-03T06:20:36.228Z,18.30
2018-06-03T06:23:10.150Z,18.30
2018-06-03T06:25:44.122Z,18.30
2018-06-03T06:30:51.895Z,18.50
2018-06-03T06:33:26.220Z,18.50
2018-06-03T06:36:00.251Z,18.50
2018-06-03T06:38:34.334Z,18.50
2018-06-03T06:41:08.253Z,18.50
2018-06-03T06:43:42.088Z,18.50
2018-06-03T06:46:16.237Z,18.50
2018-06-03T06:48:50.757Z,18.50
2018-06-03T06:51:24.637Z,18.50
2018-06-03T06:53:58.542Z,18.50
2018-06-03T06:56:32.420Z,18.50
2018-06-03T06:59:06.510Z,18.50
2018-06-03T07:01:43.495Z,18.50
2018-06-03T07:04:17.808Z,18.50
2018-06-03T07:06:52.299Z,18.50
2018-06-03T07:09:26.277Z,18.50
2018-06-03T07:14:34.568Z,18.50
2018-06-03T07:17:12.198Z,18.40
2018-06-03T07:19:46.443Z,18.40
2018-06-03T07:22:20.352Z,18.40
2018-06-03T07:27:28.593Z,18.40
2018-06-03T07:30:02.664Z,18.40
2018-06-03T07:32:36.982Z,18.50
2018-06-03T07:35:11.020Z,18.40
2018-06-03T07:37:45.235Z,18.40
2018-06-03T07:40:19.204Z,18.40
2018-06-03T07:42:53.430Z,18.50
2018-06-03T07:45:28.950Z,18.60
2018-06-03T07:48:02.849Z,18.70
2018-06-03T07:50:36.703Z,18.80
2018-06-03T07:53:10.686Z,19.00
2018-06-03T07:55:44.665Z,19.20
2018-06-03T07:58:18.704Z,19.30
2018-06-03T08:00:52.767Z,19.50
2018-06-03T08:03:26.720Z,19.50
2018-06-03T08:06:00.949Z,19.70
2018-06-03T08:08:34.869Z,19.90
2018-06-03T08:11:08.858Z,20.10
2018-06-03T08:13:42.858Z,20.30
2018-06-03T08:16:16.971Z,20.50
2018-06-03T08:18:54.773Z,20.60
2018-06-03T08:21:28.644Z,20.70
2018-06-03T08:24:02.798Z,20.70
2018-06-03T08:26:36.786Z,20.70
2018-06-03T08:29:11.091Z,20.60
2018-06-03T08:31:45.032Z,20.50
2018-06-03T08:34:18.964Z,20.40
2018-06-03T08:36:53.059Z,20.30
2018-06-03T08:39:30.615Z,20.20
2018-06-03T08:42:04.963Z,20.10
2018-06-03T08:44:39.153Z,20.00
2018-06-03T08:47:13.412Z,20.00
2018-06-03T08:49:48.154Z,20.00
2018-06-03T08:52:22.246Z,20.00
2018-06-03T08:54:56.551Z,20.00
2018-06-03T08:57:30.713Z,20.00
2018-06-03T09:00:04.891Z,20.10
2018-06-03T09:02:38.911Z,20.10
2018-06-03T09:05:17.654Z,20.20
2018-06-03T09:07:51.618Z,20.30
2018-06-03T09:12:59.874Z,20.40
2018-06-03T09:15:34.297Z,20.50
2018-06-03T09:18:08.122Z,20.60
2018-06-03T09:20:48.384Z,20.70
2018-06-03T09:23:22.381Z,20.80
2018-06-03T09:25:56.581Z,21.00
2018-06-03T09:28:31.084Z,21.10
2018-06-03T09:31:06.288Z,21.20
2018-06-03T09:33:40.188Z,21.20
2018-06-03T09:36:15.310Z,21.20
2018-06-03T09:38:49.328Z,21.40
2018-06-03T09:41:23.319Z,21.50
2018-06-03T09:43:57.462Z,21.60
2018-06-03T09:46:31.357Z,21.70
2018-06-03T09:49:05.433Z,21.70
2018-06-03T09:51:43.401Z,21.80
2018-06-03T09:54:17.545Z,21.90
2018-06-03T09:56:51.468Z,22.00
2018-06-03T09:59:25.527Z,22.10
2018-06-03T10:01:59.971Z,22.10
2018-06-03T10:04:38.747Z,22.30
2018-06-03T10:07:13.007Z,22.30
2018-06-03T10:09:47.639Z,22.40
2018-06-03T10:12:21.893Z,22.40
2018-06-03T10:14:56.076Z,22.50
2018-06-03T10:17:30.483Z,22.50
2018-06-03T10:20:04.940Z,22.60
2018-06-03T10:22:39.228Z,22.50
2018-06-03T10:25:14.151Z,22.50
2018-06-03T10:27:48.582Z,22.50
2018-06-03T10:30:22.834Z,22.50
2018-06-03T10:32:56.974Z,22.40
2018-06-03T10:35:31.675Z,22.40
2018-06-03T10:38:05.812Z,22.30
2018-06-03T10:40:40.053Z,22.40
2018-06-03T10:43:14.113Z,22.30
2018-06-03T10:48:22.089Z,22.20
2018-06-03T10:50:56.602Z,22.10
2018-06-03T10:53:37.961Z,21.90
2018-06-03T10:56:12.288Z,21.90
2018-06-03T11:01:20.436Z,21.70
2018-06-03T11:06:39.148Z,21.80
2018-06-03T11:09:13.134Z,21.80
2018-06-03T11:11:47.454Z,21.90
2018-06-03T11:17:02.517Z,21.80
2018-06-03T11:19:42.194Z,21.80
2018-06-03T11:22:16.224Z,21.90
2018-06-03T11:24:50.552Z,21.80
2018-06-03T11:27:24.560Z,21.70
2018-06-03T11:29:59.678Z,21.70
2018-06-03T11:32:33.771Z,21.70
2018-06-03T11:40:22.713Z,21.70
2018-06-03T11:42:56.883Z,21.70
2018-06-03T11:48:04.823Z,21.70
2018-06-03T11:50:39.128Z,21.80
2018-06-03T11:53:13.369Z,21.90
2018-06-03T11:55:48.185Z,21.90
2018-06-03T11:58:42.409Z,22.00
2018-06-03T12:01:17.515Z,22.10
2018-06-03T12:03:55.443Z,22.20
2018-06-03T12:06:30.586Z,22.20
2018-06-03T12:09:06.027Z,22.30
2018-06-03T12:11:40.561Z,22.40
2018-06-03T12:14:14.575Z,22.40
2018-06-03T12:16:55.412Z,22.40
2018-06-03T12:19:30.207Z,22.50
2018-06-03T12:22:08.988Z,22.50
2018-06-03T12:24:44.262Z,22.40
2018-06-03T12:27:18.585Z,22.50
2018-06-03T12:29:57.068Z,22.60
2018-06-03T12:32:31.739Z,22.80
2018-06-03T12:35:06.635Z,22.90
2018-06-03T12:37:40.662Z,22.90
2018-06-03T12:42:49.148Z,23.30
2018-06-03T12:45:23.661Z,23.30
2018-06-03T12:48:00.954Z,23.40
2018-06-03T12:50:34.998Z,23.40
2018-06-03T12:53:09.027Z,23.50
2018-06-03T12:58:20.938Z,23.50
2018-06-03T13:03:43.007Z,23.80
2018-06-03T13:08:58.042Z,24.10
2018-06-03T13:11:32.411Z,24.10
2018-06-03T13:14:06.849Z,24.30
2018-06-03T13:19:14.845Z,24.60
2018-06-03T13:21:48.779Z,24.60
2018-06-03T13:24:23.046Z,24.80
2018-06-03T13:26:56.987Z,24.60
2018-06-03T13:29:31.301Z,24.60
2018-06-03T13:32:05.253Z,24.50
2018-06-03T13:34:39.489Z,24.60
2018-06-03T13:37:13.512Z,24.30
2018-06-03T13:39:51.508Z,24.40
2018-06-03T13:42:25.899Z,24.60
2018-06-03T13:44:59.883Z,24.60
2018-06-03T13:47:35.733Z,24.60
2018-06-03T13:50:10.139Z,24.60
2018-06-03T13:52:44.147Z,24.80
2018-06-03T13:55:18.492Z,24.80
2018-06-03T13:57:52.625Z,24.80
2018-06-03T14:00:27.354Z,24.80
2018-06-03T14:03:01.528Z,24.70
2018-06-03T14:05:35.705Z,24.60
2018-06-03T14:08:09.994Z,24.50
2018-06-03T14:10:47.828Z,24.40
2018-06-03T14:13:21.877Z,24.50
2018-06-03T14:15:56.191Z,24.50
2018-06-03T14:18:30.624Z,24.50
2018-06-03T14:21:04.784Z,24.60
2018-06-03T14:23:39.798Z,24.70
2018-06-03T14:26:13.992Z,24.70
2018-06-03T14:28:48.251Z,24.60
2018-06-03T14:36:30.579Z,24.80
2018-06-03T14:39:07.058Z,24.90
2018-06-03T14:41:44.200Z,25.00
2018-06-03T14:44:18.116Z,25.00
2018-06-03T14:46:53.700Z,24.90
2018-06-03T14:49:27.813Z,24.90
2018-06-03T14:54:36.216Z,24.70
2018-06-03T14:57:10.317Z,24.70
2018-06-03T15:02:24.807Z,24.90
2018-06-03T15:04:59.077Z,25.10
2018-06-03T15:07:33.151Z,25.30
2018-06-03T15:10:07.535Z,25.40
2018-06-03T15:12:41.632Z,25.10
2018-06-03T15:15:15.842Z,25.10
2018-06-03T15:20:23.543Z,25.20
2018-06-03T15:22:57.604Z,25.20
2018-06-03T15:25:31.799Z,25.30
2018-06-03T15:28:09.189Z,25.30
2018-06-03T15:30:44.397Z,25.20
2018-06-03T15:33:22.269Z,25.00
2018-06-03T15:35:56.342Z,25.00
2018-06-03T15:38:35.759Z,25.20
2018-06-03T15:41:09.711Z,25.30
2018-06-03T15:43:50.563Z,25.40
2018-06-03T15:46:29.022Z,25.50
2018-06-03T15:49:03.139Z,25.70
2018-06-03T15:51:37.501Z,26.20
2018-06-03T15:54:11.649Z,26.70
2018-06-03T15:56:45.646Z,27.20
2018-06-03T16:01:57.466Z,27.60
2018-06-03T16:04:31.388Z,27.30
2018-06-03T16:07:05.420Z,27.30
2018-06-03T16:09:39.469Z,27.10
2018-06-03T16:12:13.791Z,27.00
2018-06-03T16:14:48.107Z,26.80
2018-06-03T16:17:22.425Z,26.50
2018-06-03T16:19:56.867Z,26.60
2018-06-03T16:25:11.130Z,26.20
2018-06-03T16:27:48.320Z,25.70
2018-06-03T16:30:22.671Z,25.40
2018-06-03T16:32:57.360Z,25.20
2018-06-03T16:35:31.483Z,24.90
2018-06-03T16:38:05.530Z,25.20
2018-06-03T16:40:39.835Z,26.00
2018-06-03T16:43:14.376Z,26.60
2018-06-03T16:45:48.596Z,26.40
2018-06-03T16:48:23.210Z,26.30
2018-06-03T16:50:57.940Z,26.00
2018-06-03T16:53:38.635Z,25.90
2018-06-03T16:56:12.692Z,25.60
2018-06-03T16:58:47.202Z,25.50
2018-06-03T17:04:03.812Z,25.30
2018-06-03T17:06:38.147Z,25.20
2018-06-03T17:09:12.207Z,25.00
2018-06-03T17:11:46.445Z,24.90
2018-06-03T17:14:20.834Z,24.80
2018-06-03T17:19:29.113Z,24.40
2018-06-03T17:27:19.019Z,23.90
2018-06-03T17:32:38.633Z,23.70
2018-06-03T17:35:13.115Z,23.60
2018-06-03T17:37:51.020Z,23.50
2018-06-03T17:40:25.783Z,23.40
2018-06-03T17:42:59.753Z,23.20
2018-06-03T17:48:08.250Z,23.00
2018-06-03T17:50:45.439Z,22.90
2018-06-03T17:53:20.093Z,22.80
2018-06-03T17:55:54.512Z,22.60
2018-06-03T17:58:28.603Z,22.40
2018-06-03T18:01:03.198Z,22.30
2018-06-03T18:06:11.895Z,22.10
2018-06-03T18:08:46.417Z,22.00
2018-06-03T18:11:24.656Z,21.90
2018-06-03T18:13:59.189Z,21.80
2018-06-03T18:16:33.816Z,21.70
2018-06-03T18:19:07.970Z,21.70
2018-06-03T18:21:47.040Z,21.80
2018-06-03T18:24:22.133Z,21.50
2018-06-03T18:26:57.144Z,21.50
2018-06-03T18:29:31.505Z,21.40
2018-06-03T18:32:06.036Z,21.40
2018-06-03T18:34:41.045Z,21.40
2018-06-03T18:37:15.863Z,21.30
2018-06-03T18:39:50.152Z,21.30
2018-06-03T18:45:07.714Z,21.10
2018-06-03T18:47:42.125Z,21.00
2018-06-03T18:50:16.426Z,21.00
2018-06-03T18:55:31.007Z,20.80
2018-06-03T18:58:05.908Z,20.70
2018-06-03T19:03:14.765Z,20.50
2018-06-03T19:05:48.920Z,20.40
2018-06-03T19:08:23.377Z,20.40
2018-06-03T19:10:57.538Z,20.30
2018-06-03T19:13:31.857Z,20.20
2018-06-03T19:16:06.170Z,20.20
2018-06-03T19:21:14.901Z,20.00
2018-06-03T19:23:49.475Z,19.90
2018-06-03T19:26:24.029Z,19.80
2018-06-03T19:29:00.705Z,19.70
2018-06-03T19:31:34.724Z,19.70
2018-06-03T19:34:09.351Z,19.60
2018-06-03T19:36:43.923Z,19.60
2018-06-03T19:39:19.404Z,19.50
2018-06-03T19:41:53.879Z,19.50
2018-06-03T19:44:28.815Z,19.40
2018-06-03T19:47:03.188Z,19.30
2018-06-03T19:49:37.790Z,19.30
2018-06-03T19:52:12.229Z,19.20
2018-06-03T19:54:46.519Z,19.10
2018-06-03T19:57:20.679Z,19.20
2018-06-03T19:59:55.513Z,19.10
2018-06-03T20:02:29.565Z,19.10
2018-06-03T20:07:44.835Z,19.00
2018-06-03T20:10:19.904Z,18.90
2018-06-03T20:12:54.261Z,18.90
2018-06-03T20:15:29.418Z,18.80
2018-06-03T20:18:04.428Z,18.80
2018-06-03T20:20:42.326Z,18.70
2018-06-03T20:23:16.681Z,18.60
2018-06-03T20:25:51.215Z,18.60
2018-06-03T20:28:26.239Z,18.60
2018-06-03T20:31:01.408Z,18.60
2018-06-03T20:33:35.773Z,18.60
2018-06-03T20:36:11.661Z,18.60
2018-06-03T20:38:58.485Z,18.50
2018-06-03T21:22:05.373Z,17.90
2018-06-03T21:24:47.001Z,17.90
2018-06-03T21:27:21.020Z,17.90
2018-06-03T21:29:55.320Z,18.00
2018-06-03T21:40:31.457Z,17.90
2018-06-03T21:43:05.618Z,17.90
2018-06-03T21:45:39.709Z,17.90
2018-06-03T21:48:13.627Z,17.90
2018-06-03T21:50:48.051Z,17.80
2018-06-03T21:53:22.410Z,17.80
2018-06-03T21:55:56.308Z,17.80
2018-06-03T21:58:30.367Z,17.70
2018-06-03T22:01:04.644Z,17.70
2018-06-03T22:03:38.830Z,17.60
2018-06-03T22:06:12.888Z,17.60
2018-06-03T22:08:46.813Z,17.50
2018-06-03T22:11:20.839Z,17.40
2018-06-03T22:13:54.847Z,17.40
2018-06-03T22:16:28.957Z,17.30
2018-06-03T22:19:04.057Z,17.20
2018-06-03T22:21:37.987Z,17.20
2018-06-03T22:24:11.987Z,17.10
2018-06-03T22:26:46.104Z,17.00
2018-06-03T22:29:21.015Z,17.00
2018-06-03T22:31:55.157Z,17.00
2018-06-03T22:34:29.286Z,17.00
2018-06-03T22:37:03.158Z,16.90
2018-06-03T22:39:37.207Z,16.90
2018-06-03T22:42:11.562Z,16.90
2018-06-03T22:44:45.627Z,16.80
2018-06-03T22:47:19.801Z,16.80
2018-06-03T22:49:53.913Z,16.80
2018-06-03T22:52:27.626Z,16.80
2018-06-03T22:55:02.286Z,16.80
2018-06-03T22:57:45.890Z,16.80
2018-06-03T23:00:27.303Z,16.70
2018-06-03T23:03:06.800Z,16.70
2018-06-03T23:05:40.833Z,16.70
2018-06-03T23:10:48.787Z,16.70
2018-06-03T23:13:22.802Z,16.60
2018-06-03T23:15:56.784Z,16.60
2018-06-03T23:18:31.099Z,16.60
2018-06-03T23:21:05.220Z,16.60
2018-06-03T23:23:39.523Z,16.50
2018-06-03T23:26:14.039Z,16.50
2018-06-03T23:28:48.124Z,16.50
2018-06-03T23:31:22.120Z,16.50
2018-06-03T23:33:55.910Z,16.50
2018-06-03T23:36:30.204Z,16.50
2018-06-03T23:39:06.445Z,16.40
2018-06-03T23:41:40.698Z,16.40
2018-06-03T23:44:15.366Z,16.30
2018-06-03T23:46:49.679Z,16.30
2018-06-03T23:49:23.859Z,16.30
2018-06-03T23:51:57.944Z,16.30
2018-06-03T23:54:32.163Z,16.30
2018-06-03T23:57:05.972Z,16.40
2018-06-03T23:59:40.243Z,16.30
